Pittsboro, NC

11:17 PM EST on December 21, 2014 (GMT -0500)
Williams | Change Station
CLOSE
Current Station
Airport
Location: Chapel Hill,
Elevation: 512 ft
Nearby Weather Stations

Elev 512 ft 35.93 °N, 79.06 °W | Updated 21 minutes ago

Overcast
Overcast
42 °F
Feels Like 38 °F
N
6
Wind Variable Wind from NE

Today
High -- | Low -- °F
--% Chance of Precip.
Yesterday
High -- | Low -- °F
Precip. -- in
7:22 AM 5:07 PM
New Moon, 0% visible
Pressure 30.25 in
Visibility 10.0 miles
Clouds Overcast 4700 ft
Windchill 38 °F
Dew Point 32 °F
Humidity 67%
Rainfall 0.00 in
Snow Depth Not available.
UV 0 out of 12
Pollen .30 out of 12
Air Quality Not available.
Flu Activity Not available.
METAR KIGX 220356Z AUTO 05005KT 10SM OVC047 06/00 A3024 RMK AO2 SLP241 T00560000

More Conditions Fewer Conditions

Pressure 30.25 in
Visibility 10.0 miles
Clouds Overcast 4700 ft
Windchill 38 °F
Dew Point 32 °F
Humidity 67%
Rainfall 0.00 in
Snow Depth Not available.
UV 0 out of 12
Pollen .30 out of 12
Air Quality Not available.
Flu Activity Not available.
METAR KIGX 220356Z AUTO 05005KT 10SM OVC047 06/00 A3024 RMK AO2 SLP241 T00560000

More Conditions Fewer Conditions

10-Day Weather Forecast

Almanac

Astronomy

Dec. 21, 2014 Rise Set
Actual Time
Civil Twilight
Nautical Twilight
Astronomical Twilight
Moon
Length of Visible Light
Length of Day
Tomorrow will be .
, % of the Moon is Illuminated

Today's Extremes

State Highs State Lows

Community

WunderPhotos

Upload Photos

1,779,534 photos uploaded!

WunderBlogs® & News

Nearby

Air Quality

  Air Quality AQ Index Pollutant
Not available.

Snow Depth

Station Depth Elevation

Earthquake Activity

City Distance Mag. Time & Date
Minimum magnitude displayed is 2.5.

Coastal Water Temperatures

Place Temperature

Nearby Weather Stations